| time (UTC) | temp F | wind direction | speed knots | gust knots | rain 1hr in | rain 24hr in | rain mn in | humidity % | barometer mb |
| 20260506222541 | 77 | 3 | 2.6 | 7.0 | 0.00 | 0.00 | 0.00 | 55 | 1018.9 |
| 20260506221541 | 76 | 31 | 2.6 | 7.0 | 0.00 | 0.00 | 0.00 | 56 | 1019.1 |
| 20260506220541 | 77 | 16 | 2.6 | 8.7 | 0.00 | 0.00 | 0.00 | 56 | 1019.3 |
| 20260506215541 | 77 | 45 | 3.5 | 8.7 | 0.00 | 0.00 | 0.00 | 55 | 1019.4 |
| 20260506214603 | 78 | 69 | 1.7 | 6.1 | 0.00 | 0.00 | 0.00 | 54 | 1019.4 |
| 20260506213541 | 79 | 24 | 2.6 | 6.1 | 0.00 | 0.00 | 0.00 | 51 | 1019.3 |
| 20260506212541 | 79 | 63 | 1.7 | 3.5 | 0.00 | 0.00 | 0.00 | 49 | 1019.4 |
| 20260506211541 | 79 | 343 | 2.6 | 7.0 | 0.00 | 0.00 | 0.00 | 47 | 1019.5 |
| 20260506210541 | 79 | 318 | 1.7 | 3.5 | 0.00 | 0.00 | 0.00 | 47 | 1019.5 |
| 20260506205601 | 80 | 331 | 0.9 | 2.6 | 0.00 | 0.00 | 0.00 | 46 | 1019.7 |
| 20260506204541 | 79 | 328 | 0.9 | 2.6 | 0.00 | 0.00 | 0.00 | 46 | 1019.6 |
| 20260506203541 | 77 | 29 | 1.7 | 3.5 | 0.00 | 0.00 | 0.00 | 48 | 1019.9 |
| 20260506202541 | 77 | 330 | 2.6 | 3.5 | 0.00 | 0.00 | 0.00 | 48 | 1020.0 |
| 20260506201541 | 77 | 325 | 0.9 | 2.6 | 0.00 | 0.00 | 0.00 | 48 | 1020.0 |
| 20260506200540 | 77 | 0 | 0.9 | 2.6 | 0.00 | 0.00 | 0.00 | 49 | 1020.3 |
| 20260506195601 | 76 | 319 | 0.9 | 3.5 | 0.00 | 0.00 | 0.00 | 50 | 1020.4 |
| 20260506194541 | 76 | 316 | 0.9 | 2.6 | 0.00 | 0.00 | 0.00 | 50 | 1020.5 |
| 20260506193541 | 75 | 323 | 1.7 | 5.2 | 0.00 | 0.00 | 0.00 | 50 | 1020.6 |
| 20260506192541 | 75 | 299 | 0.9 | 2.6 | 0.00 | 0.00 | 0.00 | 50 | 1020.7 |
| 20260506191541 | 74 | 254 | 0.9 | 2.6 | 0.00 | 0.00 | 0.00 | 51 | 1021.0 |
| 20260506190541 | 74 | 255 | 0.9 | 3.5 | 0.00 | 0.00 | 0.00 | 51 | 1021.1 |
| 20260506185541 | 73 | 241 | 0.9 | 5.2 | 0.00 | 0.00 | 0.00 | 52 | 1021.3 |
| 20260506184542 | 72 | 239 | 0.9 | 3.5 | 0.00 | 0.00 | 0.00 | 53 | 1021.3 |
| 20260506183541 | 73 | 223 | 1.7 | 3.5 | 0.00 | 0.00 | 0.00 | 52 | 1021.4 |
| 20260506182541 | 72 | 268 | 0.9 | 3.5 | 0.00 | 0.00 | 0.00 | 55 | 1021.4 |
| 20260506181541 | 71 | 270 | 1.7 | 2.6 | 0.00 | 0.00 | 0.00 | 57 | 1021.5 |
| 20260506180541 | 69 | 240 | 0.9 | 2.6 | 0.00 | 0.00 | 0.00 | 59 | 1021.5 |
| 20260506175602 | 70 | 260 | 0.9 | 2.6 | 0.00 | 0.00 | 0.00 | 59 | 1021.4 |
| 20260506174542 | 68 | 245 | 1.7 | 3.5 | 0.00 | 0.00 | 0.00 | 62 | 1021.6 |
| 20260506173602 | 67 | 251 | 0.9 | 3.5 | 0.00 | 0.00 | 0.00 | 64 | 1021.7 |
| 20260506172541 | 69 | 276 | 1.7 | 2.6 | 0.00 | 0.00 | 0.00 | 62 | 1021.9 |
| 20260506171541 | 67 | 293 | 0.9 | 1.7 | 0.00 | 0.00 | 0.00 | 65 | 1022.0 |
| 20260506170541 | 65 | 237 | 0.9 | 1.7 | 0.00 | 0.00 | 0.00 | 68 | 1022.1 |
| 20260506165542 | 64 | 277 | 0.9 | 2.6 | 0.00 | 0.00 | 0.00 | 71 | 1022.2 |
| 20260506164541 | 64 | 275 | 0.9 | 2.6 | 0.00 | 0.00 | 0.00 | 71 | 1022.3 |
| 20260506163541 | 63 | 242 | 0.9 | 1.7 | 0.00 | 0.00 | 0.00 | 72 | 1022.3 |
| 20260506162542 | 63 | 222 | 0.9 | 2.6 | 0.00 | 0.00 | 0.00 | 73 | 1022.4 |
| 20260506161542 | 62 | 251 | 0.9 | 3.5 | 0.00 | 0.00 | 0.00 | 75 | 1022.5 |
| 20260506160541 | 60 | 270 | 0.9 | 2.6 | 0.00 | 0.00 | 0.00 | 76 | 1022.7 |
| 20260506155541 | 59 | 225 | 0.9 | 2.6 | 0.00 | 0.00 | 0.00 | 79 | 1022.7 |
| 20260506154541 | 58 | 227 | 0.9 | 3.5 | 0.00 | 0.00 | 0.00 | 80 | 1022.6 |
| 20260506153541 | 57 | 250 | 0.9 | 1.7 | 0.00 | 0.00 | 0.00 | 82 | 1022.7 |
| 20260506152543 | 56 | 219 | 1.7 | 3.5 | 0.00 | 0.00 | 0.00 | 84 | 1022.8 |
| 20260506151542 | 55 | 213 | 1.7 | 2.6 | 0.00 | 0.00 | 0.00 | 84 | 1022.8 |
| 20260506150541 | 55 | 228 | 0.9 | 1.7 | 0.00 | 0.00 | 0.00 | 85 | 1022.8 |
| 20260506145541 | 54 | 216 | 0.9 | 1.7 | 0.00 | 0.00 | 0.00 | 87 | 1022.9 |
| 20260506144601 | 54 | 212 | 0.9 | 2.6 | 0.00 | 0.00 | 0.00 | 87 | 1022.7 |
| 20260506143541 | 53 | 225 | 0.9 | 2.6 | 0.00 | 0.00 | 0.00 | 89 | 1022.8 |
| 20260506142540 | 52 | 222 | 0.9 | 2.6 | 0.00 | 0.00 | 0.00 | 90 | 1022.8 |
| 20260506141601 | 51 | 205 | 0.9 | 3.5 | 0.00 | 0.00 | 0.00 | 91 | 1022.6 |
| 20260506140541 | 50 | 225 | 0.9 | 2.6 | 0.00 | 0.00 | 0.00 | 92 | 1020.9 |
| 20260506135542 | 49 | 221 | 0.9 | 2.6 | 0.00 | 0.00 | 0.00 | 93 | 1020.6 |
| 20260506134541 | 49 | 218 | 0.9 | 1.7 | 0.00 | 0.00 | 0.00 | 94 | 1020.6 |
| 20260506133541 | 48 | 226 | 0.9 | 1.7 | 0.00 | 0.00 | 0.00 | 94 | 1020.8 |
| 20260506132541 | 49 | 222 | 0.9 | 2.6 | 0.00 | 0.00 | 0.00 | 93 | 1022.2 |
| 20260506131542 | 49 | 245 | 0.9 | 1.7 | 0.00 | 0.00 | 0.00 | 93 | 1022.0 |
| 20260506130541 | 49 | 0.0 | 0.0 | 0.00 | 0.00 | 0.00 | 93 | 1022.0 | |
| 20260506125542 | 49 | 0.0 | 0.0 | 0.00 | 0.00 | 0.00 | 93 | 1021.8 | |
| 20260506124542 | 49 | 203 | 0.0 | 1.7 | 0.00 | 0.00 | 0.00 | 93 | 1021.7 |
| 20260506123542 | 49 | 0.0 | 0.0 | 0.00 | 0.00 | 0.00 | 93 | 1021.7 | |
| 20260506122542 | 49 | 0.0 | 0.0 | 0.00 | 0.00 | 0.00 | 93 | 1021.7 | |
| 20260506121542 | 49 | 211 | 0.9 | 0.9 | 0.00 | 0.00 | 0.00 | 93 | 1021.7 |
| 20260506120541 | 49 | 198 | 0.0 | 0.9 | 0.00 | 0.00 | 0.00 | 93 | 1021.7 |
| 20260506115541 | 49 | 224 | 0.0 | 0.9 | 0.00 | 0.00 | 0.00 | 93 | 1021.6 |
| 20260506114540 | 49 | 210 | 0.9 | 1.7 | 0.00 | 0.00 | 0.00 | 93 | 1021.6 |
| 20260506113541 | 49 | 221 | 0.9 | 2.6 | 0.00 | 0.00 | 0.00 | 93 | 1021.5 |
| 20260506112540 | 49 | 224 | 0.0 | 0.9 | 0.00 | 0.00 | 0.00 | 93 | 1021.4 |
| 20260506111540 | 49 | 216 | 0.0 | 1.7 | 0.00 | 0.00 | 0.00 | 94 | 1021.3 |
| 20260506110540 | 49 | 221 | 0.0 | 0.9 | 0.00 | 0.00 | 0.00 | 95 | 1021.1 |
| 20260506105603 | 49 | 0.0 | 0.0 | 0.00 | 0.00 | 0.00 | 95 | 1021.2 | |
| 20260506104541 | 49 | 0.0 | 0.0 | 0.00 | 0.00 | 0.00 | 94 | 1021.2 | |
| 20260506103541 | 49 | 0.0 | 0.0 | 0.00 | 0.00 | 0.00 | 94 | 1021.1 | |
| 20260506102601 | 48 | 0.0 | 0.0 | 0.00 | 0.00 | 0.00 | 94 | 1021.0 | |
| 20260506101601 | 49 | 0.0 | 0.0 | 0.00 | 0.00 | 0.00 | 94 | 1021.1 | |
| 20260506100621 | 48 | 0.0 | 0.0 | 0.00 | 0.00 | 0.00 | 93 | 1021.1 | |
| 20260506095541 | 49 | 0.0 | 0.0 | 0.00 | 0.00 | 0.00 | 93 | 1019.6 | |
| 20260506094541 | 49 | 0.0 | 0.0 | 0.00 | 0.00 | 0.00 | 93 | 1019.7 | |
| 20260506093541 | 50 | 0.0 | 0.0 | 0.00 | 0.00 | 0.00 | 93 | 1019.6 | |
| 20260506092541 | 50 | 0.0 | 0.0 | 0.00 | 0.00 | 0.00 | 93 | 1021.4 | |
| 20260506091541 | 50 | 0.0 | 0.0 | 0.00 | 0.00 | 0.00 | 93 | 1021.1 | |
| 20260506090541 | 50 | 0.0 | 0.0 | 0.00 | 0.00 | 0.00 | 92 | 1021.2 | |
| 20260506085541 | 51 | 0.0 | 0.0 | 0.00 | 0.00 | 0.00 | 92 | 1021.0 | |
| 20260506084541 | 51 | 0.0 | 0.0 | 0.00 | 0.00 | 0.00 | 92 | 1021.0 | |
| 20260506083541 | 51 | 0.0 | 0.0 | 0.00 | 0.00 | 0.00 | 93 | 1020.9 | |
| 20260506082541 | 51 | 0.0 | 0.0 | 0.00 | 0.00 | 0.00 | 93 | 1021.0 | |
| 20260506081542 | 51 | 0.0 | 0.0 | 0.00 | 0.00 | 0.00 | 93 | 1020.9 | |
| 20260506080541 | 51 | 0.0 | 0.0 | 0.00 | 0.00 | 0.00 | 93 | 1021.0 | |
| 20260506072540 | 51 | 0.0 | 0.0 | 0.00 | 0.00 | 0.00 | 91 | 1020.7 | |
| 20260506071541 | 51 | 0.0 | 0.0 | 0.00 | 0.00 | 0.00 | 91 | 1020.6 | |
| 20260506070601 | 52 | 0.0 | 0.0 | 0.00 | 0.00 | 0.00 | 91 | 1020.5 | |
| 20260506061541 | 54 | 268 | 0.0 | 1.7 | 0.00 | 0.00 | 0.00 | 88 | 1020.3 |
| 20260506060541 | 55 | 315 | 0.0 | 2.6 | 0.00 | 0.00 | 0.00 | 87 | 1018.6 |
| 20260506050601 | 55 | 104 | 0.9 | 2.6 | 0.00 | 0.00 | 0.00 | 87 | 1019.7 |
| 20260506044543 | 56 | 113 | 0.9 | 2.6 | 0.00 | 0.00 | 0.00 | 86 | 1019.5 |
| 20260506043602 | 56 | 133 | 0.9 | 5.2 | 0.00 | 0.00 | 0.00 | 85 | 1019.4 |
| 20260506042541 | 56 | 54 | 0.9 | 5.2 | 0.00 | 0.00 | 0.00 | 85 | 1019.3 |
| 20260506041541 | 56 | 43 | 0.0 | 2.6 | 0.00 | 0.00 | 0.00 | 84 | 1019.1 |
| 20260506040542 | 56 | 31 | 0.9 | 2.6 | 0.00 | 0.00 | 0.00 | 83 | 1019.0 |
| 20260506035541 | 57 | 30 | 0.9 | 2.6 | 0.00 | 0.00 | 0.00 | 83 | 1018.9 |
| 20260506034542 | 57 | 306 | 0.9 | 2.6 | 0.00 | 0.00 | 0.00 | 82 | 1018.8 |
| 20260506033541 | 57 | 16 | 1.7 | 2.6 | 0.00 | 0.00 | 0.00 | 81 | 1018.6 |
| 20260506032541 | 58 | 81 | 1.7 | 6.1 | 0.00 | 0.00 | 0.00 | 80 | 1018.3 |
| 20260506031543 | 58 | 83 | 1.7 | 6.1 | 0.00 | 0.00 | 0.00 | 80 | 1018.3 |
| 20260506030540 | 58 | 49 | 1.7 | 6.1 | 0.00 | 0.00 | 0.00 | 79 | 1018.3 |
| 20260506025602 | 59 | 80 | 2.6 | 6.1 | 0.00 | 0.00 | 0.00 | 79 | 1018.1 |
| 20260506024541 | 59 | 56 | 2.6 | 7.8 | 0.00 | 0.00 | 0.00 | 78 | 1018.1 |
| 20260506023603 | 60 | 74 | 0.9 | 3.5 | 0.00 | 0.00 | 0.00 | 77 | 1016.6 |
| 20260506022541 | 60 | 97 | 0.9 | 5.2 | 0.00 | 0.00 | 0.00 | 75 | 1016.4 |
| 20260506021541 | 61 | 28 | 1.7 | 5.2 | 0.00 | 0.00 | 0.00 | 74 | 1016.4 |
| 20260506020540 | 62 | 18 | 2.6 | 5.2 | 0.00 | 0.00 | 0.00 | 72 | 1017.7 |
| 20260506015541 | 62 | 232 | 1.7 | 5.2 | 0.00 | 0.00 | 0.00 | 70 | 1017.8 |
| 20260506014541 | 63 | 108 | 2.6 | 5.2 | 0.00 | 0.00 | 0.00 | 69 | 1017.8 |
| 20260506013541 | 64 | 47 | 1.7 | 7.0 | 0.00 | 0.00 | 0.00 | 68 | 1017.6 |
| 20260506012541 | 64 | 76 | 1.7 | 6.1 | 0.00 | 0.00 | 0.00 | 67 | 1017.6 |
| 20260506011541 | 65 | 33 | 2.6 | 6.1 | 0.00 | 0.00 | 0.00 | 66 | 1017.6 |
| 20260506010543 | 65 | 80 | 2.6 | 7.0 | 0.00 | 0.00 | 0.00 | 65 | 1017.5 |
| 20260506005601 | 66 | 88 | 3.5 | 6.1 | 0.00 | 0.00 | 0.00 | 64 | 1017.6 |
| 20260506004543 | 67 | 21 | 2.6 | 7.0 | 0.00 | 0.00 | 0.00 | 63 | 1017.6 |
| 20260506003541 | 68 | 64 | 2.6 | 7.8 | 0.00 | 0.00 | 0.00 | 62 | 1017.4 |
| 20260506002541 | 67 | 50 | 2.6 | 6.1 | 0.00 | 0.00 | 0.00 | 62 | 1017.4 |
| 20260506001540 | 67 | 185 | 1.7 | 5.2 | 0.00 | 0.00 | 0.00 | 62 | 1017.3 |
| 20260506000541 | 67 | 93 | 2.6 | 7.0 | 0.00 | 0.00 | 0.00 | 60 | 1017.3 |
| 20260505235601 | 67 | 67 | 2.6 | 6.1 | 0.00 | 0.00 | 0.00 | 61 | 1017.4 |
| 20260505234541 | 67 | 38 | 2.6 | 7.8 | 0.00 | 0.00 | 0.00 | 61 | 1017.2 |
| 20260505233541 | 66 | 124 | 0.9 | 6.1 | 0.00 | 0.00 | 0.00 | 62 | 1017.3 |
| 20260505232541 | 65 | 165 | 0.9 | 5.2 | 0.00 | 0.00 | 0.00 | 63 | 1017.2 |
| 20260505231541 | 66 | 26 | 1.7 | 7.0 | 0.00 | 0.00 | 0.00 | 63 | 1015.5 |
| 20260505230601 | 66 | 170 | 2.6 | 7.0 | 0.00 | 0.00 | 0.00 | 62 | 1016.9 |
| 20260505225541 | 66 | 196 | 0.9 | 7.0 | 0.00 | 0.00 | 0.00 | 62 | 1017.4 |
| 20260505224541 | 67 | 47 | 1.7 | 6.1 | 0.00 | 0.00 | 0.00 | 60 | 1017.3 |
| 20260505223601 | 68 | 152 | 0.9 | 5.2 | 0.00 | 0.00 | 0.00 | 58 | 1017.5 |